Time;durP1;ratioP1;P1;durP2;ratioP2;P2;SDS_P1;SDS_P2;PMS_P1;PMS_P2;Temp;Humidity;BMP_temperature;BMP_pressure;BME280_temperature;BME280_humidity;BME280_pressure;Samples;Min_cycle;Max_cycle;Signal;HPM_P1;HPM_P2
2020/12/11 00:02:18;;;;;;;11.23;7.53;;;5.80;99.90;;;;;;4925671;29;20054;-96
2020/12/11 00:04:43;;;;;;;12.25;7.25;;;5.90;99.90;;;;;;4945662;29;20131;-95
2020/12/11 00:07:39;;;;;;;13.13;7.55;;;5.90;99.90;;;;;;4942179;29;20047;-96
2020/12/11 00:10:07;;;;;;;9.93;6.53;;;5.90;99.90;;;;;;4935473;29;20027;-96
2020/12/11 00:12:34;;;;;;;13.80;8.32;;;5.90;99.90;;;;;;4931507;29;20087;-94
2020/12/11 00:15:00;;;;;;;12.98;7.78;;;5.90;99.90;;;;;;4928586;29;20051;-94
2020/12/11 00:17:26;;;;;;;10.05;6.10;;;5.90;99.90;;;;;;4924271;29;20067;-95
2020/12/11 00:19:55;;;;;;;11.02;7.68;;;5.90;99.90;;;;;;4923557;29;20042;-93
2020/12/11 00:22:22;;;;;;;12.63;7.55;;;5.90;99.90;;;;;;4923805;29;20028;-94
2020/12/11 00:24:50;;;;;;;10.95;7.25;;;5.90;99.90;;;;;;4924210;29;20043;-95
2020/12/11 00:27:16;;;;;;;11.68;6.78;;;5.90;99.90;;;;;;4923972;29;20024;-95
2020/12/11 00:29:42;;;;;;;12.15;7.72;;;5.90;99.90;;;;;;4929961;29;20035;-94
2020/12/11 00:32:08;;;;;;;9.65;6.40;;;5.90;99.90;;;;;;4943209;29;20046;-95
2020/12/11 00:34:39;;;;;;;11.05;6.63;;;5.90;99.90;;;;;;4945938;29;20010;-93
2020/12/11 00:37:05;;;;;;;;;;;5.90;99.90;;;;;;4944587;29;20015;-95
2020/12/11 00:39:31;;;;;;;8.63;5.72;;;6.00;99.90;;;;;;4944092;29;19898;-95
2020/12/11 00:41:56;;;;;;;8.00;5.18;;;5.90;99.90;;;;;;4938438;29;20023;-94
2020/12/11 00:44:25;;;;;;;7.90;5.68;;;5.90;99.90;;;;;;4934467;29;20047;-94
2020/12/11 00:46:51;;;;;;;10.43;5.90;;;5.90;99.90;;;;;;4924112;29;20040;-94
2020/12/11 00:49:17;;;;;;;9.90;6.25;;;5.90;99.90;;;;;;4923039;29;20034;-93
2020/12/11 00:51:43;;;;;;;8.35;5.72;;;5.90;99.90;;;;;;4922390;29;20056;-94
2020/12/11 00:54:16;;;;;;;8.13;5.25;;;5.90;99.90;;;;;;4927923;29;20091;-94
2020/12/11 00:56:42;;;;;;;8.57;5.57;;;5.90;99.90;;;;;;4929493;29;20031;-94
2020/12/11 00:59:07;;;;;;;11.82;6.45;;;6.00;99.90;;;;;;4924838;29;20039;-94
2020/12/11 01:01:37;;;;;;;10.63;6.57;;;6.00;99.90;;;;;;4922910;29;20119;-95
2020/12/11 01:04:04;;;;;;;10.55;6.05;;;6.00;99.90;;;;;;4921256;29;20032;-93
2020/12/11 01:06:30;;;;;;;8.65;5.28;;;6.00;99.90;;;;;;4920051;29;20036;-95
2020/12/11 01:09:14;;;;;;;8.40;5.13;;;6.00;99.90;;;;;;4921633;29;20030;-95
2020/12/11 01:11:40;;;;;;;9.68;5.70;;;6.00;99.90;;;;;;4926492;29;20032;-94
2020/12/11 01:14:08;;;;;;;7.72;5.03;;;6.00;99.90;;;;;;4921355;29;20127;-95
2020/12/11 01:16:34;;;;;;;10.32;6.00;;;6.00;99.90;;;;;;4921139;29;20115;-94
2020/12/11 01:19:00;;;;;;;9.35;5.95;;;6.00;99.90;;;;;;4921836;29;20062;-95
2020/12/11 01:21:25;;;;;;;7.43;4.82;;;6.00;99.90;;;;;;4922327;29;20023;-95
2020/12/11 01:23:51;;;;;;;7.65;4.78;;;6.00;99.90;;;;;;4922569;29;20425;-95
2020/12/11 01:26:19;;;;;;;6.18;3.90;;;6.00;99.90;;;;;;4922395;29;20057;-96
2020/12/11 01:28:45;;;;;;;7.75;5.05;;;6.00;99.90;;;;;;4922141;29;20020;-95
2020/12/11 01:31:15;;;;;;;6.82;4.60;;;6.00;99.90;;;;;;4922014;29;20024;-95
2020/12/11 01:33:46;;;;;;;6.13;3.72;;;6.10;99.90;;;;;;4921847;29;20023;-95
2020/12/11 01:36:11;;;;;;;8.18;4.35;;;6.00;99.90;;;;;;4927972;29;20038;-95
2020/12/11 01:38:37;;;;;;;9.35;4.72;;;6.00;99.90;;;;;;4924941;29;20110;-94
2020/12/11 01:41:05;;;;;;;7.78;4.50;;;6.00;99.90;;;;;;4920791;29;20030;-95
2020/12/11 01:43:31;;;;;;;5.10;3.53;;;6.00;99.90;;;;;;4920545;29;20044;-94
2020/12/11 01:45:56;;;;;;;5.47;3.58;;;6.00;99.90;;;;;;4920575;29;20109;-94
2020/12/11 01:48:22;;;;;;;6.28;3.75;;;6.00;99.90;;;;;;4921065;29;20055;-95
2020/12/11 01:50:48;;;;;;;6.03;3.85;;;6.00;99.90;;;;;;4921896;29;20486;-95
2020/12/11 01:53:16;;;;;;;5.28;3.47;;;6.00;99.90;;;;;;4921889;29;20030;-95
2020/12/11 01:55:44;;;;;;;3.75;3.00;;;6.00;99.90;;;;;;4921237;29;20038;-94
2020/12/11 01:58:17;;;;;;;4.68;3.35;;;6.10;99.90;;;;;;4921959;29;20019;-94
2020/12/11 02:00:46;;;;;;;3.70;2.70;;;6.10;99.90;;;;;;4922763;29;20031;-93
2020/12/11 02:03:12;;;;;;;4.28;3.00;;;6.10;99.90;;;;;;4935438;29;20020;-94
2020/12/11 02:05:38;;;;;;;2.92;2.38;;;6.10;99.90;;;;;;4940497;29;20058;-95
2020/12/11 02:08:05;;;;;;;3.78;2.55;;;6.10;99.90;;;;;;4934063;29;20130;-94
2020/12/11 02:10:31;;;;;;;2.38;2.00;;;6.10;99.90;;;;;;4926036;29;20051;-95
2020/12/11 02:13:07;;;;;;;3.10;2.05;;;6.10;99.90;;;;;;4923698;29;20094;-94
2020/12/11 02:15:34;;;;;;;3.10;2.42;;;6.10;99.90;;;;;;4930341;29;20035;-94
2020/12/11 02:18:00;;;;;;;4.75;3.25;;;6.10;99.90;;;;;;4923455;29;20036;-95
2020/12/11 02:20:28;;;;;;;3.42;2.30;;;6.10;99.90;;;;;;4923401;29;20098;-95
2020/12/11 02:22:57;;;;;;;3.20;2.25;;;6.10;99.90;;;;;;4922968;29;20036;-96
2020/12/11 02:25:22;;;;;;;2.55;1.80;;;6.10;99.90;;;;;;4922833;29;20032;-95
2020/12/11 02:27:48;;;;;;;3.35;2.80;;;6.10;99.90;;;;;;4922832;29;20030;-95
2020/12/11 02:30:15;;;;;;;3.33;2.53;;;6.10;99.90;;;;;;4922106;29;20027;-94
2020/12/11 02:32:41;;;;;;;6.05;2.60;;;6.10;99.90;;;;;;4921519;29;20058;-94
2020/12/11 02:35:08;;;;;;;4.57;2.33;;;6.10;99.90;;;;;;4921768;29;20020;-95
2020/12/11 02:37:39;;;;;;;2.90;2.25;;;6.10;99.90;;;;;;4921630;29;20019;-95
2020/12/11 02:40:06;;;;;;;2.83;2.53;;;6.10;99.90;;;;;;4921077;29;20055;-94
2020/12/11 02:42:32;;;;;;;2.88;2.33;;;6.10;99.90;;;;;;4921453;29;20504;-94
2020/12/11 02:44:58;;;;;;;3.47;2.38;;;6.10;99.90;;;;;;4920515;29;20412;-94
2020/12/11 02:47:25;;;;;;;3.20;2.38;;;6.10;99.90;;;;;;4920790;29;20095;-94
2020/12/11 02:49:51;;;;;;;4.22;2.58;;;6.10;99.90;;;;;;4920051;29;20023;-94
2020/12/11 02:52:17;;;;;;;2.70;1.95;;;6.10;99.90;;;;;;4920210;29;20035;-94
2020/12/11 02:54:42;;;;;;;3.03;2.13;;;6.10;99.90;;;;;;4920166;29;20023;-94
2020/12/11 02:57:08;;;;;;;2.80;2.20;;;6.10;99.90;;;;;;4920054;29;20031;-93
2020/12/11 02:59:34;;;;;;;2.95;2.35;;;6.10;99.90;;;;;;4919902;29;20028;-94
2020/12/11 03:02:00;;;;;;;2.55;2.10;;;6.10;99.90;;;;;;4919716;29;20023;-93
2020/12/11 03:04:25;;;;;;;1.80;1.53;;;6.10;99.90;;;;;;4925482;29;20034;-94
2020/12/11 03:06:51;;;;;;;2.25;1.63;;;6.20;99.90;;;;;;4928656;29;20067;-94
2020/12/11 03:09:17;;;;;;;2.70;1.98;;;6.10;99.90;;;;;;4925789;29;20074;-94
2020/12/11 03:11:42;;;;;;;1.85;1.67;;;6.10;99.90;;;;;;4920103;29;20075;-93
2020/12/11 03:14:08;;;;;;;2.80;1.80;;;6.10;99.90;;;;;;4919788;29;20052;-94
2020/12/11 03:16:34;;;;;;;2.35;1.75;;;6.10;99.90;;;;;;4919728;29;20028;-95
2020/12/11 03:19:00;;;;;;;1.65;1.52;;;6.10;99.90;;;;;;4920027;29;20067;-93
2020/12/11 03:21:25;;;;;;;2.95;1.60;;;6.10;99.90;;;;;;4920255;29;20059;-95
2020/12/11 03:23:51;;;;;;;2.67;1.98;;;6.20;99.90;;;;;;4920184;29;20090;-94
2020/12/11 03:26:17;;;;;;;3.53;2.00;;;6.10;99.90;;;;;;4919689;29;20090;-94
2020/12/11 03:28:42;;;;;;;3.20;1.83;;;6.20;99.90;;;;;;4919751;29;20028;-94
2020/12/11 03:31:08;;;;;;;2.90;2.15;;;6.20;99.90;;;;;;4919577;29;20027;-95
2020/12/11 03:33:37;;;;;;;2.20;2.00;;;6.20;99.90;;;;;;4919517;29;20110;-95
2020/12/11 03:36:03;;;;;;;2.50;2.00;;;6.20;99.90;;;;;;4919428;29;20497;-94
2020/12/11 03:38:28;;;;;;;3.15;2.40;;;6.20;99.90;;;;;;4919461;29;20030;-94
2020/12/11 03:40:54;;;;;;;2.95;2.30;;;6.20;99.90;;;;;;4919835;29;20485;-94
2020/12/11 03:43:20;;;;;;;3.75;2.60;;;6.20;99.90;;;;;;4919499;29;20040;-94
2020/12/11 03:45:46;;;;;;;2.40;1.90;;;6.20;99.90;;;;;;4919276;29;20114;-94
2020/12/11 03:48:11;;;;;;;1.83;1.52;;;6.20;99.90;;;;;;4919414;29;20486;-94
2020/12/11 03:50:37;;;;;;;2.00;1.60;;;6.20;99.90;;;;;;4919684;29;20032;-94
2020/12/11 03:53:03;;;;;;;2.55;2.20;;;6.20;99.90;;;;;;4923916;29;20012;-95
2020/12/11 03:55:30;;;;;;;2.17;1.65;;;6.20;99.90;;;;;;4941489;29;20012;-94
2020/12/11 03:57:56;;;;;;;2.80;1.58;;;6.20;99.90;;;;;;4941585;29;20036;-94
2020/12/11 04:00:24;;;;;;;2.08;1.77;;;6.30;99.90;;;;;;4938955;29;20445;-94
2020/12/11 04:02:50;;;;;;;3.97;2.25;;;6.20;99.90;;;;;;4937813;29;20066;-95
2020/12/11 04:05:16;;;;;;;3.10;2.10;;;6.20;99.90;;;;;;4920153;29;20044;-94
2020/12/11 04:07:41;;;;;;;2.50;1.90;;;6.30;99.90;;;;;;4920685;29;20038;-95
2020/12/11 04:10:07;;;;;;;3.55;2.42;;;6.30;99.90;;;;;;4920271;29;20461;-94
2020/12/11 04:12:33;;;;;;;3.88;2.58;;;6.30;99.90;;;;;;4920807;29;20026;-94
2020/12/11 04:14:59;;;;;;;4.35;3.03;;;6.30;99.90;;;;;;4906107;29;20038;-96
2020/12/11 04:17:24;;;;;;;4.45;2.70;;;6.30;99.90;;;;;;4920475;29;20024;-95
2020/12/11 04:19:53;;;;;;;4.90;3.10;;;6.30;99.90;;;;;;4926970;29;20026;-94
2020/12/11 04:22:18;;;;;;;5.78;3.88;;;6.30;99.90;;;;;;4922526;29;20496;-94
2020/12/11 04:24:44;;;;;;;6.50;3.58;;;6.30;99.90;;;;;;4920516;29;20111;-93
2020/12/11 04:27:10;;;;;;;5.47;3.45;;;6.30;99.90;;;;;;4920240;29;20482;-93
2020/12/11 04:29:36;;;;;;;5.07;2.88;;;6.30;99.90;;;;;;4919708;29;20020;-94
2020/12/11 04:32:02;;;;;;;4.80;3.25;;;6.30;99.90;;;;;;4921623;29;20024;-93
2020/12/11 04:34:28;;;;;;;5.25;3.40;;;6.30;99.90;;;;;;4927606;29;20390;-94
2020/12/11 04:36:55;;;;;;;5.07;3.25;;;6.30;99.90;;;;;;4919341;29;20043;-95
2020/12/11 04:39:22;;;;;;;4.63;3.03;;;6.30;99.90;;;;;;4919404;29;20035;-94
2020/12/11 04:41:49;;;;;;;5.78;3.47;;;6.30;99.90;;;;;;4920247;29;20075;-94
2020/12/11 04:44:15;;;;;;;5.03;3.03;;;6.30;99.90;;;;;;4921816;29;20059;-95
2020/12/11 04:46:40;;;;;;;5.97;3.85;;;6.30;99.90;;;;;;4921338;29;20070;-94
2020/12/11 04:49:08;;;;;;;4.78;3.08;;;6.30;99.90;;;;;;4922476;29;20024;-95
2020/12/11 04:51:34;;;;;;;5.90;3.72;;;6.40;99.90;;;;;;4921964;29;20032;-94
2020/12/11 04:54:02;;;;;;;7.93;4.63;;;6.30;99.90;;;;;;4922558;29;20063;-95
2020/12/11 04:56:29;;;;;;;7.03;4.45;;;6.40;99.90;;;;;;4921761;29;20036;-95
2020/12/11 04:58:56;;;;;;;9.60;5.57;;;6.40;99.90;;;;;;4921630;29;20028;-93
2020/12/11 05:01:32;;;;;;;7.80;5.07;;;6.40;99.90;;;;;;4921074;29;20027;-94
2020/12/11 05:03:59;;;;;;;11.63;6.22;;;6.40;99.90;;;;;;4921268;29;20032;-95
2020/12/11 05:06:25;;;;;;;9.15;5.72;;;6.40;99.90;;;;;;4921361;29;20040;-95
2020/12/11 05:09:13;;;;;;;9.05;5.32;;;6.40;99.90;;;;;;4921209;29;20040;-94
2020/12/11 05:11:41;;;;;;;12.27;6.32;;;6.40;99.90;;;;;;4921002;29;20094;-95
2020/12/11 05:14:30;;;;;;;8.13;4.90;;;6.40;99.90;;;;;;4921404;29;20020;-94
2020/12/11 05:16:57;;;;;;;8.77;5.00;;;6.50;99.90;;;;;;4921404;29;20418;-95
2020/12/11 05:19:23;;;;;;;17.73;7.15;;;6.50;99.90;;;;;;4931871;29;20027;-95
2020/12/11 05:21:49;;;;;;;12.85;6.20;;;6.50;99.90;;;;;;4927945;29;20043;-95
2020/12/11 05:24:15;;;;;;;15.48;7.85;;;6.50;99.90;;;;;;4928622;29;20032;-94
2020/12/11 05:26:41;;;;;;;19.50;7.97;;;6.50;99.90;;;;;;4941622;29;20051;-95
2020/12/11 05:29:07;;;;;;;22.23;8.52;;;6.50;99.90;;;;;;4940659;29;20031;-95
2020/12/11 05:31:33;;;;;;;23.70;8.55;;;6.50;99.90;;;;;;4932210;29;20167;-94
2020/12/11 05:34:08;;;;;;;19.70;8.43;;;6.50;99.90;;;;;;4924148;29;20051;-94
2020/12/11 05:36:47;;;;;;;19.90;8.32;;;6.50;99.90;;;;;;4922861;29;20028;-94
2020/12/11 05:39:17;;;;;;;21.85;8.48;;;6.50;99.90;;;;;;4920512;29;20028;-94
2020/12/11 05:41:43;;;;;;;21.95;9.05;;;6.50;99.90;;;;;;4921064;29;20022;-94
2020/12/11 05:44:23;;;;;;;32.13;10.77;;;6.50;99.90;;;;;;4920776;29;20047;-94
2020/12/11 05:46:49;;;;;;;31.67;8.38;;;6.50;99.90;;;;;;4919596;29;20044;-93
2020/12/11 05:49:30;;;;;;;28.38;9.90;;;6.60;99.90;;;;;;4926098;29;20020;-93
2020/12/11 05:51:59;;;;;;;33.53;10.27;;;6.60;99.90;;;;;;4925653;29;20040;-93
2020/12/11 05:54:25;;;;;;;21.20;8.18;;;6.60;99.90;;;;;;4921136;29;20094;-94
2020/12/11 05:56:52;;;;;;;31.38;10.52;;;6.60;99.90;;;;;;4921512;29;20469;-93
2020/12/11 05:59:25;;;;;;;34.05;10.25;;;6.60;99.90;;;;;;4921793;29;20511;-95
2020/12/11 06:01:55;;;;;;;57.97;11.48;;;6.60;99.90;;;;;;4932153;29;20036;-93
2020/12/11 06:04:24;;;;;;;;;;;6.60;99.90;;;;;;4922128;29;20019;-96
2020/12/11 06:06:54;;;;;;;32.50;9.52;;;6.60;99.90;;;;;;4921184;29;19929;-94
2020/12/11 06:09:26;;;;;;;44.95;12.48;;;6.70;99.90;;;;;;4920898;29;20034;-94
2020/12/11 06:11:59;;;;;;;35.28;11.52;;;6.70;99.90;;;;;;4922571;29;20032;-94
2020/12/11 06:14:45;;;;;;;34.20;10.35;;;6.70;99.90;;;;;;4920166;29;20019;-94
2020/12/11 06:17:13;;;;;;;41.75;11.50;;;6.70;99.90;;;;;;4919083;29;20055;-94
2020/12/11 06:19:42;;;;;;;45.53;11.77;;;6.70;99.90;;;;;;4920171;29;20031;-93
2020/12/11 06:22:08;;;;;;;47.90;12.05;;;6.70;99.90;;;;;;4920101;29;20051;-94
2020/12/11 06:24:34;;;;;;;42.40;11.43;;;6.70;99.90;;;;;;4919991;29;20055;-94
2020/12/11 06:27:02;;;;;;;48.70;11.43;;;6.70;99.90;;;;;;4920441;29;20035;-93
2020/12/11 06:29:30;;;;;;;43.65;10.82;;;6.70;99.90;;;;;;4920385;29;20071;-93
2020/12/11 06:31:56;;;;;;;110.45;15.25;;;6.70;99.90;;;;;;4926703;29;20032;-93
2020/12/11 06:34:24;;;;;;;42.00;12.05;;;6.80;99.90;;;;;;4917643;29;20087;-95
2020/12/11 06:36:50;;;;;;;49.63;12.18;;;6.80;99.90;;;;;;4919497;29;20106;-95
2020/12/11 06:39:45;;;;;;;57.65;13.18;;;6.80;99.90;;;;;;4912715;29;20038;-95
2020/12/11 06:42:46;;;;;;;73.88;13.55;;;6.80;99.90;;;;;;4918476;29;20059;-94
2020/12/11 06:45:26;;;;;;;44.17;11.27;;;6.80;99.90;;;;;;4861155;29;20529;-95
2020/12/11 06:47:53;;;;;;;49.20;11.77;;;6.80;99.90;;;;;;4872504;29;20046;-93
2020/12/11 06:50:21;;;;;;;76.45;13.63;;;6.80;99.90;;;;;;4871879;29;20078;-93
2020/12/11 06:52:47;;;;;;;54.63;13.68;;;6.80;99.90;;;;;;4871790;29;20065;-95
2020/12/11 06:55:13;;;;;;;81.03;15.20;;;6.80;99.90;;;;;;4873488;29;20545;-92
2020/12/11 06:57:41;;;;;;;56.72;12.27;;;6.80;99.90;;;;;;4867124;29;20033;-93
2020/12/11 07:00:29;;;;;;;58.50;13.30;;;6.80;99.90;;;;;;4874719;29;20040;-94
2020/12/11 07:03:21;;;;;;;51.05;12.98;;;6.90;99.90;;;;;;4873398;29;20053;-93
2020/12/11 07:06:04;;;;;;;52.70;11.82;;;6.80;99.90;;;;;;4868187;29;20049;-95
2020/12/11 07:08:30;;;;;;;50.97;12.70;;;6.80;99.90;;;;;;4882053;29;20029;-94
2020/12/11 07:11:07;;;;;;;63.55;13.45;;;6.90;99.90;;;;;;4879202;29;20112;-95
2020/12/11 07:13:35;;;;;;;43.08;11.43;;;6.80;99.90;;;;;;4878765;29;20115;-94
2020/12/11 07:16:01;;;;;;;59.92;13.35;;;6.90;99.90;;;;;;4878237;29;20108;-94
2020/12/11 07:18:27;;;;;;;62.65;13.77;;;6.80;99.90;;;;;;4871373;29;20119;-95
2020/12/11 07:20:56;;;;;;;61.45;12.90;;;6.90;99.90;;;;;;4919839;29;20082;-95
2020/12/11 07:23:24;;;;;;;55.83;12.90;;;6.90;99.90;;;;;;4920294;29;20047;-93
2020/12/11 07:25:52;;;;;;;67.60;13.82;;;6.90;99.90;;;;;;4927886;29;20035;-94
2020/12/11 07:28:18;;;;;;;65.65;13.82;;;6.90;99.90;;;;;;4936990;29;20055;-94
2020/12/11 07:30:47;;;;;;;56.88;12.00;;;6.90;99.90;;;;;;4920128;29;20035;-95
2020/12/11 07:33:13;;;;;;;56.15;13.25;;;6.90;99.90;;;;;;4939022;29;20043;-96
2020/12/11 07:35:51;;;;;;;42.80;11.13;;;6.90;99.90;;;;;;4923466;29;20023;-94
2020/12/11 07:38:19;;;;;;;52.97;12.40;;;6.90;99.90;;;;;;4923846;29;20039;-95
2020/12/11 07:40:56;;;;;;;52.65;11.25;;;6.90;99.90;;;;;;4921295;29;20111;-94
2020/12/11 07:43:24;;;;;;;49.88;12.15;;;6.90;99.90;;;;;;4919302;29;20054;-95
2020/12/11 07:45:50;;;;;;;53.80;13.05;;;7.00;99.90;;;;;;4919666;29;20542;-94
2020/12/11 07:48:16;;;;;;;55.00;12.93;;;7.00;99.90;;;;;;4920539;29;20470;-94
2020/12/11 07:50:48;;;;;;;52.92;12.70;;;7.00;99.90;;;;;;4917034;29;20027;-95
2020/12/11 07:53:13;;;;;;;55.90;12.88;;;7.00;99.90;;;;;;4917436;29;20280;-95
2020/12/11 07:55:39;;;;;;;57.78;13.80;;;7.00;99.90;;;;;;4918093;29;20459;-94
2020/12/11 07:58:05;;;;;;;60.00;13.55;;;7.00;99.90;;;;;;4917742;29;20035;-94
2020/12/11 08:00:37;;;;;;;64.93;14.63;;;7.00;99.90;;;;;;4918218;29;20078;-95
2020/12/11 08:03:06;;;;;;;59.88;14.02;;;7.00;99.90;;;;;;4917738;29;20171;-96
2020/12/11 08:05:36;;;;;;;76.18;16.67;;;7.00;99.90;;;;;;4905656;29;20050;-94
2020/12/11 08:08:03;;;;;;;74.13;16.52;;;7.00;99.90;;;;;;4922526;29;20394;-95
2020/12/11 08:11:08;;;;;;;66.93;17.25;;;7.00;99.90;;;;;;4931435;29;20024;-93
2020/12/11 08:14:18;;;;;;;83.43;16.05;;;7.00;99.90;;;;;;4938671;28;20091;-96
2020/12/11 08:26:09;;;;;;;79.07;16.45;;;7.00;99.90;;;;;;5235058;23;20536;-93
2020/12/11 08:34:11;;;;;;;73.32;15.00;;;7.00;99.90;;;;;;5804074;23;20554;-94
2020/12/11 08:37:05;;;;;;;;;;;;;;;;;;;;;
2020/12/11 09:39:34;;;;;;;80.07;14.38;;;7.30;99.90;;;;;;6032732;23;20082;-95
2020/12/11 14:50:07;;;;;;;14.93;5.97;;;9.50;99.90;;;;;;5393943;23;20060;-95
2020/12/11 14:52:33;;;;;;;12.75;5.65;;;9.50;99.90;;;;;;4923796;29;20044;-96
2020/12/11 14:55:07;;;;;;;19.00;6.97;;;9.50;99.90;;;;;;4923985;29;20032;-96
2020/12/11 14:57:38;;;;;;;12.85;5.82;;;9.50;99.90;;;;;;4924985;29;20025;-96
2020/12/11 15:02:46;;;;;;;18.27;5.68;;;9.50;99.90;;;;;;5429079;23;20054;-96
2020/12/11 15:05:13;;;;;;;13.98;4.82;;;9.40;99.90;;;;;;4924645;29;20044;-96
2020/12/11 15:07:43;;;;;;;16.90;5.70;;;9.40;99.90;;;;;;4923340;29;20546;-95
2020/12/11 15:10:11;;;;;;;16.55;5.57;;;9.30;99.90;;;;;;4907069;29;20029;-96
2020/12/11 15:12:37;;;;;;;21.70;5.90;;;9.30;99.90;;;;;;4921872;29;20047;-96
2020/12/11 15:15:04;;;;;;;13.27;5.70;;;9.20;99.90;;;;;;4923299;29;20091;-95
2020/12/11 15:22:57;;;;;;;16.63;4.93;;;9.20;99.90;;;;;;4897593;29;20076;-94
2020/12/11 15:25:22;;;;;;;13.98;5.10;;;9.10;99.90;;;;;;4882395;29;20051;-92
2020/12/11 15:27:48;;;;;;;11.82;5.20;;;9.10;99.90;;;;;;4883030;29;20032;-95
2020/12/11 15:30:14;;;;;;;13.55;4.85;;;9.00;99.90;;;;;;4883711;29;20459;-95
2020/12/11 15:32:40;;;;;;;13.85;4.50;;;9.00;99.90;;;;;;4898340;29;20025;-94
2020/12/11 15:35:06;;;;;;;13.95;5.15;;;8.90;99.90;;;;;;4901117;29;20373;-94
2020/12/11 15:37:32;;;;;;;12.60;5.32;;;8.90;99.90;;;;;;4901262;29;20036;-95
2020/12/11 15:39:57;;;;;;;11.50;4.22;;;8.80;99.90;;;;;;4901420;29;20025;-94
2020/12/11 15:42:23;;;;;;;19.38;5.15;;;8.70;99.90;;;;;;4896980;29;20044;-94
2020/12/11 15:44:49;;;;;;;13.98;4.50;;;8.60;99.90;;;;;;4885973;29;20395;-95
2020/12/11 15:47:15;;;;;;;19.08;4.68;;;8.50;99.90;;;;;;4883289;29;20483;-94
2020/12/11 15:49:41;;;;;;;14.75;4.78;;;8.40;99.90;;;;;;4884807;29;20028;-94
2020/12/11 15:52:07;;;;;;;15.50;4.80;;;8.40;99.90;;;;;;4883903;29;20021;-94
2020/12/11 15:54:32;;;;;;;14.27;4.90;;;8.30;99.90;;;;;;4884643;29;20028;-94
2020/12/11 15:56:58;;;;;;;12.77;5.63;;;8.20;99.90;;;;;;4884396;29;20035;-95
2020/12/11 15:59:24;;;;;;;27.95;10.00;;;8.20;99.90;;;;;;4883289;29;20040;-95
2020/12/11 16:01:49;;;;;;;13.07;6.18;;;8.10;99.90;;;;;;4882568;29;20056;-94
2020/12/11 16:04:16;;;;;;;37.58;12.82;;;8.10;99.90;;;;;;4882781;29;20497;-95
2020/12/11 16:06:41;;;;;;;16.05;8.48;;;8.00;99.90;;;;;;4892912;29;20047;-95
2020/12/11 16:09:07;;;;;;;21.15;8.95;;;8.00;99.90;;;;;;4901304;29;20028;-95
2020/12/11 16:11:33;;;;;;;16.85;6.20;;;7.90;99.90;;;;;;4901193;29;20513;-95
2020/12/11 16:13:59;;;;;;;20.65;7.95;;;7.90;99.90;;;;;;4901238;29;20032;-93
2020/12/11 16:16:26;;;;;;;18.92;7.50;;;7.80;99.90;;;;;;4904714;29;20080;-95
2020/12/11 16:18:53;;;;;;;17.15;7.28;;;7.80;99.90;;;;;;4914049;29;20028;-94
2020/12/11 16:21:22;;;;;;;14.93;6.22;;;7.80;99.90;;;;;;4901167;29;20135;-93
2020/12/11 16:23:48;;;;;;;13.75;5.47;;;7.70;99.90;;;;;;4884769;29;20032;-95
2020/12/11 16:26:14;;;;;;;15.52;5.72;;;7.70;99.90;;;;;;4882251;29;20033;-94
2020/12/11 16:28:40;;;;;;;15.82;6.53;;;7.70;99.90;;;;;;4882219;29;20025;-95
2020/12/11 16:31:15;;;;;;;19.65;8.43;;;7.60;99.90;;;;;;4881693;29;20025;-94
2020/12/11 16:33:41;;;;;;;20.13;8.93;;;7.60;99.90;;;;;;4900809;29;20047;-94
2020/12/11 16:36:07;;;;;;;21.38;7.85;;;7.60;99.90;;;;;;4900561;29;20035;-95
2020/12/11 16:38:33;;;;;;;21.73;9.20;;;7.60;99.90;;;;;;4903623;29;20035;-94
2020/12/11 16:40:59;;;;;;;21.35;9.00;;;7.60;99.90;;;;;;4903892;29;20091;-95
2020/12/11 16:44:00;;;;;;;19.02;8.07;;;7.50;99.90;;;;;;4903907;29;20024;-94
2020/12/11 16:46:22;;;;;;;21.65;7.63;;;7.50;99.90;;;;;;4924136;29;20511;-96
2020/12/11 16:52:17;;;;;;;;;;;;;;;;;;;;;
2020/12/11 16:55:46;;;;;;;23.38;9.50;;;7.50;99.90;;;;;;4849720;29;19951;-96
2020/12/11 17:09:52;;;;;;;25.98;10.30;;;7.70;99.90;;;;;;5294408;23;20055;-95
2020/12/11 17:12:21;;;;;;;24.48;9.55;;;7.70;99.90;;;;;;4909187;29;20028;-95
2020/12/11 17:14:47;;;;;;;26.88;9.20;;;7.80;99.90;;;;;;4910529;29;20039;-94
2020/12/11 17:17:14;;;;;;;20.45;10.30;;;7.90;99.90;;;;;;4912769;29;20028;-94
2020/12/11 17:19:43;;;;;;;21.30;10.82;;;7.90;99.90;;;;;;4899701;29;20060;-93
2020/12/11 17:22:17;;;;;;;28.67;11.75;;;7.90;99.90;;;;;;4913902;29;20048;-95
2020/12/11 17:24:43;;;;;;;31.45;10.73;;;7.90;99.90;;;;;;4927493;29;20651;-95
2020/12/11 17:27:08;;;;;;;28.33;11.43;;;7.90;99.90;;;;;;4904542;29;20549;-93
2020/12/11 17:29:38;;;;;;;36.55;15.07;;;7.90;99.90;;;;;;4909417;29;20040;-95
2020/12/11 17:37:12;;;;;;;;;;;7.90;99.90;;;;;;4929877;29;20043;-96
2020/12/11 17:39:38;;;;;;;24.27;10.70;;;7.90;99.90;;;;;;4919374;29;19914;-95
2020/12/11 17:42:03;;;;;;;28.45;11.75;;;8.00;99.90;;;;;;4912414;29;20032;-95
2020/12/11 17:44:31;;;;;;;32.47;15.38;;;8.00;99.90;;;;;;4918607;29;20044;-95
2020/12/11 17:47:09;;;;;;;34.88;15.95;;;8.00;99.90;;;;;;4916152;29;20497;-96
2020/12/11 17:49:41;;;;;;;35.10;14.05;;;8.10;99.90;;;;;;4905479;29;20028;-95
2020/12/11 17:52:12;;;;;;;29.77;13.13;;;8.10;99.90;;;;;;4908226;29;20028;-95
2020/12/11 17:54:39;;;;;;;27.58;11.50;;;8.10;99.90;;;;;;4898200;29;20028;-95
2020/12/11 17:57:04;;;;;;;24.45;10.65;;;8.20;99.90;;;;;;4890704;29;20044;-96
2020/12/11 17:59:30;;;;;;;20.83;9.65;;;8.20;99.90;;;;;;4889548;29;20115;-95
2020/12/11 18:01:57;;;;;;;27.33;11.85;;;8.20;99.90;;;;;;4888707;29;20040;-95
2020/12/11 18:04:23;;;;;;;34.50;17.38;;;8.20;99.90;;;;;;4886544;29;20134;-95
2020/12/11 18:06:51;;;;;;;35.67;15.65;;;8.30;99.90;;;;;;4885549;29;20040;-96
2020/12/11 18:09:20;;;;;;;28.98;14.10;;;8.30;99.90;;;;;;4887062;29;20056;-95
2020/12/11 18:11:46;;;;;;;37.53;15.80;;;8.30;99.90;;;;;;4887602;29;20396;-95
2020/12/11 18:14:12;;;;;;;39.55;15.02;;;8.40;99.90;;;;;;4887941;29;20028;-95
2020/12/11 18:16:39;;;;;;;28.30;13.98;;;8.40;99.90;;;;;;4888352;29;20044;-96
2020/12/11 18:19:05;;;;;;;32.63;12.55;;;8.40;99.90;;;;;;4885773;29;20032;-95
2020/12/11 18:21:39;;;;;;;34.88;13.30;;;8.40;99.90;;;;;;4885512;29;20032;-95
2020/12/11 18:24:08;;;;;;;40.88;15.27;;;8.40;99.90;;;;;;4902227;29;20040;-96
2020/12/11 18:26:36;;;;;;;37.10;15.07;;;8.40;99.90;;;;;;4885837;29;20084;-94
2020/12/11 18:29:13;;;;;;;40.33;15.15;;;8.30;99.90;;;;;;4897742;29;20045;-96
2020/12/11 18:31:48;;;;;;;35.83;15.43;;;8.20;99.90;;;;;;4904067;29;20048;-96
2020/12/11 18:34:49;;;;;;;;;;;;;;;;;;;;;
